Francistown, Botswana

9:23 PM CAT on January 16, 2017 (GMT +0200)
Francistown | | Change Station

Elev 3281 ft 21.22 °S, 27.50 °E | Updated 23 minutes ago

Light Thunderstorms and Rain
Light Thunderstorm Rain
68 °F
Feels Like 68 °F
N
2
Wind Variable Wind from Variable

Today
High -- | Low -- °F
--% Chance of Precip.
Yesterday
High -- | Low -- °F
Precip. -- in
Pressure 29.92 in
Visibility 6.2 miles
Clouds Few 2000 ft
Few 3000 ft
Mostly Cloudy 6000 ft
Dew Point 68 °F
Humidity 100%
Rainfall 0.00 in
Snow Depth Not available.
5:41 AM 6:57 PM
Waning Gibbous, 79% visible
METAR FBFT 161900Z VRB02KT 9999 -TSRA FEW020 FEW030CB BKN060 20/20 Q1013
Pressure 29.92 in
Visibility 6.2 miles
Clouds Few 2000 ft
Few 3000 ft
Mostly Cloudy 6000 ft
Dew Point 68 °F
Humidity 100%
Rainfall 0.00 in
Snow Depth Not available.
5:41 AM 6:57 PM
Waning Gibbous, 79% visible
METAR FBFT 161900Z VRB02KT 9999 -TSRA FEW020 FEW030CB BKN060 20/20 Q1013

Get Your Daily Forecast Email!

Thanks for signing up!

Be on the lookout for a verification email in your inbox.

You'll start receiving the daily forecast at 8 AM.

×

10-Day Weather Forecast

No radar image for this location.
×

Almanac

Astronomy

Jan. 16, 2017 Rise Set
Actual Time
Civil Twilight
Nautical Twilight
Astronomical Twilight
Moon
Length of Visible Light
Length of Day
Tomorrow will be .
, % of the Moon is Illuminated

Today's Extremes

Country Highs Country Lows

Community

WunderPhotos

Upload Photos

1,962,540 photos uploaded!

WunderBlog® & News

Nearby

Air Quality

  Air Quality AQ Index Pollutant
Not available.

Snow Depth

Station Depth Elevation

Earthquake Activity

City Distance Mag. Time & Date
Minimum magnitude displayed is 2.5.

Coastal Water Temperatures

Place Temperature

Stations

Nearby Weather Stations

Station Location Temp. Windchill Dew Point Humidity Wind Precip. Elev Updated Type